Time;durP1;ratioP1;P1;durP2;ratioP2;P2;SDS_P1;SDS_P2;PMS_P1;PMS_P2;Temp;Humidity;BMP_temperature;BMP_pressure;BME280_temperature;BME280_humidity;BME280_pressure;Samples;Min_cycle;Max_cycle;Signal;HPM_P1;HPM_P2
2021/09/12 15:47:03;;;;;;;6.80;6.10;;;;;;;21.71;89.50;100807.38;2614542;36;20106;-45
2021/09/12 21:47:30;;;;;;;19.13;14.80;;;;;;;15.93;100.00;100874.50;2614179;36;20035;-43
2021/09/12 21:49:57;;;;;;;20.30;15.38;;;;;;;15.91;100.00;100875.38;2615863;31;20035;-43
2021/09/12 21:52:24;;;;;;;19.83;15.88;;;;;;;15.91;100.00;100875.38;2615849;31;20510;-43
2021/09/12 21:54:52;;;;;;;22.38;16.52;;;;;;;15.90;100.00;100871.94;2615538;36;20668;-45
2021/09/12 21:57:19;;;;;;;21.88;15.77;;;;;;;15.89;100.00;100874.50;2615157;36;20038;-45
2021/09/12 21:59:46;;;;;;;18.13;15.25;;;;;;;15.88;100.00;100868.47;2615653;36;20089;-42
2021/09/12 22:02:13;;;;;;;17.67;14.73;;;;;;;15.84;100.00;100873.59;2614352;36;20037;-42
2021/09/12 22:04:41;;;;;;;20.27;15.90;;;;;;;15.76;100.00;100866.69;2614066;36;20128;-45
2021/09/12 22:07:08;;;;;;;20.00;15.23;;;;;;;15.72;100.00;100874.38;2614804;31;20038;-44
2021/09/12 22:09:35;;;;;;;20.70;16.30;;;;;;;15.67;100.00;100870.91;2614188;36;20030;-43
2021/09/12 22:12:02;;;;;;;19.88;16.02;;;;;;;15.65;100.00;100867.44;2614429;31;20034;-43
2021/09/12 22:14:30;;;;;;;23.55;15.98;;;;;;;15.67;100.00;100870.91;2614601;31;20628;-43
2021/09/12 22:16:57;;;;;;;20.10;15.63;;;;;;;15.68;100.00;100870.91;2614750;36;20050;-43
2021/09/12 22:19:24;;;;;;;22.00;15.50;;;;;;;15.71;100.00;100865.75;2615249;36;20035;-45
2021/09/12 22:21:51;;;;;;;22.60;15.82;;;;;;;15.74;100.00;100862.34;2616106;31;20407;-49
2021/09/12 22:24:18;;;;;;;20.05;15.75;;;;;;;15.75;100.00;100867.50;2614809;36;20038;-46
2021/09/12 22:26:46;;;;;;;23.90;15.93;;;;;;;15.75;100.00;100864.91;2615259;31;20022;-45
2021/09/12 22:29:13;;;;;;;22.38;16.38;;;;;;;15.76;100.00;100873.53;2614915;36;20046;-42
2021/09/12 22:31:40;;;;;;;20.98;15.73;;;;;;;15.76;100.00;100864.09;2615062;36;20213;-41
2021/09/12 22:34:07;;;;;;;20.98;15.85;;;;;;;15.77;100.00;100865.81;2615221;31;20058;-46
2021/09/12 22:36:34;;;;;;;20.60;15.57;;;;;;;15.80;100.00;100867.53;2614845;36;20039;-43
2021/09/12 22:39:01;;;;;;;21.75;15.57;;;;;;;15.81;100.00;100861.53;2614706;31;20061;-50
2021/09/12 22:41:28;;;;;;;19.77;15.32;;;;;;;15.83;100.00;100859.81;2616963;31;20030;-43
2021/09/12 22:43:56;;;;;;;19.30;15.65;;;;;;;15.84;100.00;100863.25;2616250;31;20038;-44
2021/09/12 22:46:23;;;;;;;22.08;15.52;;;;;;;15.86;100.00;100867.59;2615037;36;20034;-43
2021/09/12 22:48:50;;;;;;;19.67;14.95;;;;;;;15.87;100.00;100864.16;2615415;31;20029;-41
2021/09/12 22:51:17;;;;;;;19.75;15.20;;;;;;;15.85;100.00;100858.09;2614990;31;20038;-46
2021/09/12 22:53:44;;;;;;;20.42;15.30;;;;;;;15.88;100.00;100865.03;2615071;31;20061;-44
2021/09/12 22:56:11;;;;;;;19.48;14.50;;;;;;;15.84;100.00;100864.13;2615046;31;20038;-45
2021/09/12 22:58:38;;;;;;;17.75;14.07;;;;;;;15.79;100.00;100864.09;2614847;36;20034;-43
2021/09/12 23:01:05;;;;;;;21.65;14.90;;;;;;;15.73;100.00;100860.63;2615222;36;20039;-45
2021/09/12 23:03:33;;;;;;;20.80;15.50;;;;;;;15.63;100.00;100862.22;2615500;31;20146;-43
2021/09/12 23:06:00;;;;;;;20.13;15.38;;;;;;;15.59;100.00;100867.34;2614284;36;20129;-46
2021/09/12 23:08:27;;;;;;;19.40;15.27;;;;;;;15.52;100.00;100862.13;2614916;36;21059;-44
2021/09/12 23:10:54;;;;;;;20.50;15.93;;;;;;;15.49;100.00;100864.69;2615951;31;20041;-46
2021/09/12 23:13:22;;;;;;;22.67;15.85;;;;;;;15.39;100.00;100857.75;2615455;36;20034;-41
2021/09/12 23:15:49;;;;;;;20.13;15.20;;;;;;;15.34;100.00;100858.53;2615420;31;20034;-45
2021/09/12 23:18:16;;;;;;;20.25;15.55;;;;;;;15.31;100.00;100855.94;2615062;31;20030;-45
2021/09/12 23:20:43;;;;;;;24.52;15.27;;;;;;;15.24;100.00;100855.88;2615032;36;20034;-44
2021/09/12 23:23:11;;;;;;;24.80;16.45;;;;;;;15.19;100.00;100857.53;2616192;31;20037;-47
2021/09/12 23:25:38;;;;;;;23.25;16.92;;;;;;;15.16;100.00;100857.53;2614849;36;20034;-45
2021/09/12 23:28:05;;;;;;;24.20;17.83;;;;;;;15.09;100.00;100858.31;2614789;36;20062;-48
2021/09/12 23:30:33;;;;;;;22.58;16.30;;;;;;;15.02;100.00;100859.97;2615309;31;20882;-46
2021/09/12 23:33:00;;;;;;;27.23;16.98;;;;;;;14.97;100.00;100859.03;2614774;36;20155;-44
2021/09/12 23:35:27;;;;;;;23.92;17.75;;;;;;;14.92;100.00;100855.53;2614952;36;20034;-44
2021/09/12 23:37:54;;;;;;;24.40;17.88;;;;;;;14.86;100.00;100854.63;2614841;36;20035;-48
2021/09/12 23:40:22;;;;;;;29.25;19.27;;;;;;;14.85;100.00;100858.06;2615892;31;20039;-42
2021/09/12 23:42:49;;;;;;;25.77;18.45;;;;;;;14.77;100.00;100848.53;2615054;36;20042;-51
2021/09/12 23:45:16;;;;;;;25.85;18.75;;;;;;;14.71;100.00;100851.03;2615572;31;20062;-43
2021/09/12 23:47:43;;;;;;;27.42;19.10;;;;;;;14.71;100.00;100856.19;2615010;36;20030;-42
2021/09/12 23:50:10;;;;;;;31.45;20.08;;;;;;;14.68;100.00;100850.13;2615459;36;20034;-43
2021/09/12 23:52:37;;;;;;;29.30;20.40;;;;;;;14.65;100.00;100853.56;2614972;31;20039;-43
2021/09/12 23:55:05;;;;;;;30.42;20.73;;;;;;;14.63;100.00;100857.81;2615402;36;20415;-45
2021/09/12 23:57:32;;;;;;;29.42;21.08;;;;;;;14.61;100.00;100858.66;2615205;31;20042;-45
2021/09/12 23:59:59;;;;;;;31.45;21.05;;;;;;;14.54;100.00;100857.69;2614959;31;20569;-44
